Data for 01/13/2007

Time Sea-Level Adjusted Pressure Absolute Pressure Temperature Relative Humidity Dew Point   
(mb) (inHg) (mb) (inHg) (C) (F) (%) (C) (F)
00:05 1021 30.15 851 25.13 -23.3 -9.9 74 -26.7 -16.1
00:10 1021 30.15 851 25.13 -23.1 -9.6 74 -26.5 -15.6
00:15 1021 30.15 851 25.13 -23 -9.4 72 -26.7 -16
00:20 1021 30.15 850 25.1 -23.2 -9.8 73 -26.7 -16.1
00:25 1021 30.15 850 25.1 -23.1 -9.6 75 -26.4 -15.5
00:30 1021 30.15 850 25.1 -22.9 -9.2 75 -26.2 -15.2
00:35 1021 30.15 850 25.1 -22.8 -9.1 75 -26.2 -15.1
00:40 1021 30.15 850 25.1 -22.9 -9.2 75 -26.1 -15.1
00:45 1021 30.15 850 25.1 -22.8 -9 75 -26.1 -15
00:50 1021 30.15 850 25.1 -22.9 -9.3 75 -26.2 -15.2
00:55 1021 30.15 850 25.1 -22.9 -9.3 74 -26.4 -15.5
01:00 1021 30.15 850 25.1 -23.2 -9.7 74 -26.6 -15.8
01:05 1021 30.15 850 25.1 -23.3 -10 74 -26.7 -16.1
01:10 1021 30.15 850 25.1 -23.5 -10.3 74 -26.9 -16.4
01:15 1021 30.15 850 25.1 -23.6 -10.4 74 -27 -16.6
01:20 1021 30.15 850 25.1 -23.6 -10.6 74 -27 -16.6
01:25 1021 30.15 850 25.1 -23.7 -10.7 75 -27 -16.5
01:30 1021 30.15 850 25.1 -23.8 -10.9 75 -27.2 -16.9
01:35 1021 30.15 850 25.1 -23.9 -11 76 -27.1 -16.7
01:40 1020 30.12 850 25.1 -23.7 -10.7 76 -26.8 -16.3
01:45 1020 30.12 850 25.1 -23.5 -10.3 75 -26.8 -16.2
01:50 1020 30.12 850 25.1 -23.6 -10.5 76 -26.8 -16.2
01:55 1020 30.12 850 25.1 -23.8 -10.8 75 -27 -16.6
02:00 1020 30.12 850 25.1 -24 -11.1 77 -26.9 -16.4
02:05 1020 30.12 850 25.1 -23.5 -10.3 76 -26.6 -15.9
02:10 1020 30.12 850 25.1 -23.3 -10 75 -26.5 -15.7
02:15 1020 30.12 850 25.1 -23.5 -10.2 76 -26.6 -15.9
02:20 1020 30.12 850 25.1 -23.5 -10.3 76 -26.7 -16
02:25 1020 30.12 850 25.1 -23.5 -10.3 76 -26.6 -16
02:30 1020 30.12 850 25.1 -23.4 -10.1 75 -26.7 -16.1
02:35 1020 30.12 849 25.07 -23.7 -10.7 74 -27.1 -16.8
02:40 1020 30.12 849 25.07 -24.4 -12 76 -27.6 -17.7
02:45 1020 30.12 849 25.07 -24.6 -12.4 78 -27.5 -17.4
02:50 1020 30.12 849 25.07 -23.9 -11 78 -26.8 -16.2
02:55 1020 30.12 849 25.07 -23.4 -10.1 77 -26.4 -15.4
03:00 1020 30.12 849 25.07 -22.8 -9 75 -26.1 -14.9
03:05 1020 30.12 849 25.07 -22.6 -8.7 75 -25.9 -14.7
03:10 1020 30.12 849 25.07 -22.3 -8.2 74 -25.8 -14.5
03:15 1020 30.12 849 25.07 -22.2 -7.9 73 -25.8 -14.5
03:20 1020 30.12 849 25.07 -22.2 -8 73 -25.9 -14.6
03:25 1020 30.12 849 25.07 -22.3 -8.1 73 -25.9 -14.6
03:30 1020 30.12 849 25.07 -22.5 -8.4 73 -26.1 -14.9
03:35 1020 30.12 849 25.07 -23.1 -9.7 77 -26.1 -14.9
03:40 1020 30.12 849 25.07 -23 -9.5 77 -26 -14.7
03:45 1020 30.12 849 25.07 -22.9 -9.3 77 -25.9 -14.7
03:50 1020 30.12 849 25.07 -22.8 -9.1 76 -26 -14.8
03:55 1020 30.12 849 25.07 -22.6 -8.7 75 -25.9 -14.6
04:00 1020 30.12 849 25.07 -22.6 -8.6 75 -25.9 -14.6
04:05 1020 30.12 849 25.07 -22.5 -8.6 75 -25.8 -14.5
04:10 1020 30.12 849 25.07 -22.4 -8.4 73 -26 -14.8
04:15 1020 30.12 849 25.07 -23.4 -10.1 76 -26.6 -15.8
04:20 1020 30.12 849 25.07 -23.7 -10.7 77 -26.6 -15.9
04:25 1020 30.12 849 25.07 -23.6 -10.6 76 -26.7 -16.1
04:30 1020 30.12 849 25.07 -23.4 -10.2 77 -26.4 -15.6
04:35 1020 30.12 849 25.07 -23.2 -9.7 77 -26.2 -15.1
04:40 1020 30.12 849 25.07 -23.3 -10 75 -26.6 -15.9
04:45 1020 30.12 849 25.07 -23.6 -10.5 77 -26.6 -16
04:50 1020 30.12 849 25.07 -23.7 -10.6 77 -26.7 -16.1
04:55 1020 30.12 849 25.07 -23.7 -10.6 76 -26.8 -16.2
05:00 1019 30.09 849 25.07 -23.7 -10.7 75 -27 -16.5
05:05 1019 30.09 849 25.07 -23.9 -11 75 -27.2 -16.9
05:10 1019 30.09 848 25.04 -24.1 -11.4 77 -27.2 -16.9
05:15 1019 30.09 848 25.04 -23.9 -11 76 -27 -16.6
05:20 1019 30.09 848 25.04 -24 -11.1 76 -27.1 -16.8
05:25 1019 30.09 848 25.04 -24 -11.2 75 -27.3 -17.1
05:30 1019 30.09 848 25.04 -24.1 -11.5 76 -27.2 -17
05:35 1019 30.09 848 25.04 -24.1 -11.4 76 -27.2 -16.9
05:40 1019 30.09 848 25.04 -23.9 -10.9 76 -27 -16.6
05:45 1019 30.09 848 25.04 -23.8 -10.8 76 -26.9 -16.4
05:50 1019 30.09 849 25.07 -23.6 -10.5 75 -26.8 -16.3
05:55 1019 30.09 848 25.04 -23.6 -10.5 76 -26.8 -16.2
06:00 1019 30.09 848 25.04 -23.5 -10.2 75 -26.7 -16
06:05 1019 30.09 849 25.07 -23.4 -10.1 75 -26.7 -16
06:10 1019 30.09 849 25.07 -23.3 -10 75 -26.6 -15.9
06:15 1019 30.09 849 25.07 -23.4 -10 77 -26.4 -15.5
06:20 1019 30.09 848 25.04 -23.1 -9.5 76 -26.2 -15.2
06:25 1019 30.09 848 25.04 -22.9 -9.3 76 -26.1 -15
06:30 1019 30.09 848 25.04 -23 -9.3 77 -26 -14.8
06:35 1019 30.09 848 25.04 -22.8 -9.1 75 -26.1 -15
06:40 1019 30.09 848 25.04 -23.3 -10 76 -26.4 -15.6
06:45 1019 30.09 848 25.04 -23.9 -10.9 75 -27.1 -16.9
06:50 1019 30.09 848 25.04 -24.5 -12.1 80 -27.1 -16.7
06:55 1019 30.09 848 25.04 -24 -11.3 76 -27.1 -16.8
07:00 1019 30.09 848 25.04 -24.2 -11.5 78 -27 -16.7
07:05 1019 30.09 848 25.04 -24 -11.2 79 -26.7 -16
07:10 1019 30.09 848 25.04 -23.6 -10.5 78 -26.5 -15.6
07:15 1019 30.09 848 25.04 -23.5 -10.3 77 -26.4 -15.6
07:20 1019 30.09 848 25.04 -23.5 -10.3 76 -26.7 -16
07:25 1019 30.09 848 25.04 -23.7 -10.6 75 -26.9 -16.4
07:30 1019 30.09 848 25.04 -24 -11.1 76 -27.1 -16.8
07:35 1019 30.09 848 25.04 -24 -11.2 75 -27.3 -17.1
07:40 1019 30.09 848 25.04 -24.4 -11.8 77 -27.3 -17.1
07:45 1019 30.09 848 25.04 -24.2 -11.6 76 -27.3 -17.2
07:50 1019 30.09 848 25.04 -24.3 -11.7 78 -27.1 -16.8
07:55 1019 30.09 848 25.04 -23.8 -10.8 78 -26.6 -15.8
08:00 1019 30.09 848 25.04 -23.3 -9.9 78 -26.2 -15.1
08:05 1019 30.09 848 25.04 -23.1 -9.6 76 -26.2 -15.1
08:10 1019 30.09 848 25.04 -23 -9.5 76 -26.2 -15.2
08:15 1019 30.09 848 25.04 -23.3 -9.9 77 -26.3 -15.3
08:20 1019 30.09 848 25.04 -23.4 -10.1 77 -26.3 -15.4
08:25 1019 30.09 848 25.04 -23.3 -9.9 76 -26.4 -15.6
08:30 1019 30.09 848 25.04 -23.5 -10.3 76 -26.6 -15.8
08:35 1019 30.09 848 25.04 -23.4 -10.1 73 -27 -16.5
08:40 1019 30.09 848 25.04 -23.3 -9.9 72 -27 -16.6
08:45 1019 30.09 848 25.04 -23.1 -9.6 72 -26.9 -16.4
08:50 1019 30.09 848 25.04 -23.2 -9.7 72 -26.9 -16.4
08:55 1019 30.09 848 25.04 -22.9 -9.1 72 -26.5 -15.8
09:00 1019 30.09 848 25.04 -22.2 -8 70 -26.3 -15.3
09:05 1019 30.09 848 25.04 -21.9 -7.4 69 -26.1 -15
09:10 1019 30.09 848 25.04 -21.7 -7 69 -26 -14.8
09:15 1019 30.09 848 25.04 -21.3 -6.4 68 -25.8 -14.4
09:20 1019 30.09 848 25.04 -20.8 -5.4 67 -25.4 -13.8
09:25 1019 30.09 848 25.04 -20 -4 65 -25 -12.9
09:30 1019 30.09 848 25.04 -19.5 -3 63 -24.9 -12.8
09:35 1019 30.09 848 25.04 -19.2 -2.5 61 -24.9 -12.7
09:40 1019 30.09 848 25.04 -18.3 -0.9 60 -24.3 -11.7
09:45 1019 30.09 848 25.04 -18 -0.3 59 -24.2 -11.6
09:50 1019 30.09 848 25.04 -17.7 0.2 58 -24.1 -11.3
09:55 1019 30.09 848 25.04 -17.6 0.3 58 -24 -11.1
10:00 1019 30.09 848 25.04 -17.4 0.7 59 -23.7 -10.7
10:05 1019 30.09 848 25.04 -17 1.5 55 -23.9 -11.1
10:10 1019 30.09 848 25.04 -17.2 1.1 56 -24 -11.2
10:15 1019 30.09 848 25.04 -17 1.5 55 -24.1 -11.4
10:20 1019 30.09 848 25.04 -17.2 1 57 -23.9 -10.9
10:25 1019 30.09 848 25.04 -17.9 -0.2 59 -24.1 -11.3
10:30 1019 30.09 848 25.04 -17.7 0.1 58 -24.1 -11.4
10:35 1019 30.09 848 25.04 -17.1 1.1 57 -23.9 -11
10:40 1019 30.09 848 25.04 -16.3 2.6 55 -23.3 -10
10:45 1019 30.09 848 25.04 -16.1 3.1 55 -23.2 -9.7
10:50 1019 30.09 848 25.04 -15.5 4.1 52 -23.2 -9.7
10:55 1019 30.09 848 25.04 -15.2 4.7 51 -23.1 -9.6
11:00 1019 30.09 848 25.04 -15.7 3.8 55 -22.9 -9.1
11:05 1019 30.09 848 25.04 -16.4 2.5 57 -23.1 -9.5
11:10 1019 30.09 848 25.04 -16.4 2.5 57 -23.1 -9.5
11:15 1019 30.09 848 25.04 -16.4 2.6 56 -23.1 -9.7
11:20 1019 30.09 848 25.04 -16.1 3 56 -23 -9.4
11:25 1019 30.09 848 25.04 -15.7 3.7 53 -23.1 -9.7
11:30 1019 30.09 848 25.04 -15.4 4.3 52 -23.2 -9.8
11:35 1019 30.09 848 25.04 -15.9 3.3 55 -23 -9.4
11:40 1019 30.09 848 25.04 -16.4 2.5 56 -23.2 -9.8
11:45 1019 30.09 848 25.04 -16.2 2.9 56 -23 -9.4
11:50 1018 30.06 848 25.04 -15.7 3.8 53 -23.2 -9.8
11:55 1018 30.06 848 25.04 -15.2 4.7 53 -22.9 -9.1
12:00 1018 30.06 847 25.01 -15.5 4 53 -23.1 -9.6
12:05 1018 30.06 847 25.01 -15.6 4 51 -23.6 -10.4
12:10 1018 30.06 847 25.01 -16.3 2.6 52 -24 -11.2
12:15 1018 30.06 847 25.01 -16.8 1.8 55 -23.9 -11
12:20 1018 30.06 847 25.01 -16.9 1.6 55 -23.9 -11
12:25 1018 30.06 847 25.01 -16.9 1.6 54 -24.2 -11.5
12:30 1018 30.06 847 25.01 -16.8 1.7 53 -24.4 -11.9
12:35 1018 30.06 847 25.01 -16.4 2.4 52 -24.3 -11.7
12:40 1018 30.06 847 25.01 -16 3.1 49 -24.4 -12
12:45 1018 30.06 847 25.01 -16.2 2.8 52 -24 -11.3
12:50 1018 30.06 847 25.01 -16.1 3.1 50 -24.2 -11.6
12:55 1018 30.06 847 25.01 -15.8 3.6 49 -24.1 -11.4
13:00 1018 30.06 847 25.01 -15.7 3.8 50 -23.8 -10.8
13:05 1018 30.06 847 25.01 -15.5 4 52 -23.3 -9.9
13:10 1018 30.06 847 25.01 -15 5 50 -23.3 -9.9
13:15 1018 30.06 847 25.01 -14.9 5.2 48 -23.7 -10.6
13:20 1018 30.06 847 25.01 -15.2 4.6 49 -23.7 -10.7
13:25 1018 30.06 847 25.01 -15.5 4.2 50 -23.6 -10.4
13:30 1018 30.06 847 25.01 -15.7 3.7 49 -24.1 -11.5
13:35 1017 30.03 847 25.01 -15.9 3.5 53 -23.5 -10.3
13:40 1017 30.03 847 25.01 -15.4 4.3 48 -24.1 -11.4
13:45 1017 30.03 847 25.01 -15.6 3.9 50 -23.8 -10.8
13:50 1017 30.03 847 25.01 -15.6 4 50 -23.7 -10.6
13:55 1017 30.03 847 25.01 -15.2 4.7 49 -23.7 -10.6
14:00 1017 30.03 847 25.01 -15.1 4.8 49 -23.6 -10.4
14:05 1017 30.03 847 25.01 -14.9 5.2 49 -23.4 -10.2
14:10 1017 30.03 847 25.01 -14.6 5.7 46 -23.7 -10.7
14:15 1017 30.03 847 25.01 -15 4.9 48 -23.7 -10.6
14:20 1017 30.03 846 24.98 -14.9 5.2 48 -23.6 -10.4
14:25 1017 30.03 846 24.98 -14.5 6 47 -23.4 -10.2
14:30 1017 30.03 846 24.98 -14.1 6.6 45 -23.5 -10.3
14:35 1017 30.03 846 24.98 -13.8 7.1 45 -23.4 -10.1
14:40 1017 30.03 846 24.98 -13.7 7.3 43 -23.8 -10.8
14:45 1017 30.03 846 24.98 -13.9 7 44 -23.7 -10.7
14:50 1017 30.03 846 24.98 -13.3 8.1 43 -23.4 -10.1
14:55 1017 30.03 846 24.98 -13.1 8.4 43 -23.3 -9.9
15:00 1017 30.03 846 24.98 -12.6 9.3 42 -23.1 -9.6
15:05 1017 30.03 846 24.98 -12.4 9.6 41 -23.1 -9.7
15:10 1017 30.03 846 24.98 -12.9 8.7 44 -22.8 -9.1
15:15 1017 30.03 846 24.98 -13.4 7.9 46 -22.8 -9
15:20 1017 30.03 847 25.01 -13.5 7.7 45 -23 -9.4
15:25 1017 30.03 847 25.01 -13.8 7.1 48 -22.7 -8.9
15:30 1017 30.03 847 25.01 -13.8 7.1 47 -22.7 -8.9
15:35 1017 30.03 847 25.01 -13.5 7.6 45 -23.1 -9.6
15:40 1017 30.03 847 25.01 -13.4 7.8 45 -23 -9.5
15:45 1017 30.03 847 25.01 -13.5 7.7 46 -22.9 -9.2
15:50 1017 30.03 847 25.01 -13.6 7.6 47 -22.7 -8.8
15:55 1017 30.03 847 25.01 -13.9 7.1 48 -22.8 -9
16:00 1017 30.03 847 25.01 -14.2 6.5 47 -23.1 -9.5
16:05 1017 30.03 847 25.01 -14.2 6.5 47 -23.2 -9.8
16:10 1017 30.03 847 25.01 -14.1 6.7 48 -22.8 -9
16:15 1017 30.03 847 25.01 -13.9 6.9 48 -22.7 -8.9
16:20 1017 30.03 847 25.01 -14.1 6.7 48 -22.9 -9.1
16:25 1018 30.06 847 25.01 -14.6 5.7 49 -23.1 -9.6
16:30 1018 30.06 847 25.01 -15 5.1 51 -23.1 -9.6
16:35 1018 30.06 847 25.01 -15.2 4.7 51 -23.1 -9.6
16:40 1018 30.06 847 25.01 -15 5.1 52 -22.9 -9.1
16:45 1018 30.06 847 25.01 -14.8 5.4 51 -22.7 -8.9
16:50 1018 30.06 847 25.01 -14.7 5.5 51 -22.8 -9
16:55 1018 30.06 847 25.01 -14.9 5.2 52 -22.7 -8.9
17:00 1018 30.06 847 25.01 -15.4 4.2 53 -23.1 -9.5
17:05 1018 30.06 847 25.01 -15.9 3.3 55 -23 -9.5
17:10 1018 30.06 847 25.01 -16.2 2.9 56 -23 -9.5
17:15 1018 30.06 847 25.01 -16.3 2.7 56 -23.1 -9.5
17:20 1018 30.06 847 25.01 -16.2 2.8 57 -22.8 -9.1
17:25 1018 30.06 847 25.01 -16.3 2.6 58 -22.8 -9.1
17:30 1018 30.06 847 25.01 -16.8 1.8 61 -22.7 -8.8
17:35 1018 30.06 847 25.01 -17.1 1.2 61 -22.9 -9.2
17:40 1018 30.06 847 25.01 -17.6 0.4 64 -22.8 -9.1
17:45 1018 30.06 847 25.01 -17.9 -0.1 66 -22.7 -8.8
17:50 1018 30.06 847 25.01 -18.4 -1 69 -22.8 -9
17:55 1018 30.06 847 25.01 -18.9 -2 69 -23.3 -9.9
18:00 1018 30.06 847 25.01 -19 -2.1 69 -23.4 -10.1
18:05 1018 30.06 847 25.01 -18.8 -1.8 69 -23.2 -9.7
18:10 1018 30.06 847 25.01 -18.6 -1.5 68 -23.1 -9.6
18:15 1018 30.06 847 25.01 -18.7 -1.6 71 -22.7 -8.9
18:20 1018 30.06 848 25.04 -18.5 -1.4 68 -23 -9.4
18:25 1018 30.06 848 25.04 -19.1 -2.4 70 -23.4 -10.1
18:30 1018 30.06 848 25.04 -19.8 -3.7 74 -23.4 -10.1
18:35 1018 30.06 848 25.04 -19.6 -3.4 73 -23.4 -10.1
18:40 1018 30.06 848 25.04 -19.2 -2.5 70 -23.3 -10
18:45 1018 30.06 848 25.04 -18.9 -1.9 69 -23.2 -9.7
18:50 1018 30.06 848 25.04 -18.9 -2 69 -23.2 -9.7
18:55 1018 30.06 848 25.04 -19.1 -2.4 70 -23.2 -9.8
19:00 1018 30.06 848 25.04 -19.1 -2.3 69 -23.3 -10
19:05 1018 30.06 848 25.04 -18.8 -1.8 69 -23.1 -9.6
19:10 1019 30.09 848 25.04 -19 -2.2 70 -23.2 -9.8
19:15 1019 30.09 848 25.04 -19.3 -2.8 72 -23.3 -9.9
19:20 1019 30.09 848 25.04 -19.4 -3 72 -23.2 -9.8
19:25 1019 30.09 848 25.04 -19.5 -3 73 -23.2 -9.8
19:30 1019 30.09 848 25.04 -19.1 -2.4 72 -23 -9.4
19:35 1019 30.09 848 25.04 -19.1 -2.3 72 -22.9 -9.2
19:40 1019 30.09 848 25.04 -19.1 -2.4 72 -22.9 -9.3
19:45 1019 30.09 848 25.04 -19.2 -2.5 72 -23 -9.4
19:50 1019 30.09 848 25.04 -19.3 -2.7 73 -23 -9.5
19:55 1019 30.09 848 25.04 -19.3 -2.8 73 -23 -9.4
20:00 1019 30.09 848 25.04 -19.2 -2.5 73 -22.8 -9.1
20:05 1019 30.09 848 25.04 -19 -2.1 73 -22.6 -8.7
20:10 1019 30.09 848 25.04 -19.2 -2.6 74 -22.8 -9
20:15 1019 30.09 848 25.04 -19.4 -3 74 -22.9 -9.3
20:20 1019 30.09 848 25.04 -19.5 -3.1 74 -23 -9.5
20:25 1019 30.09 848 25.04 -19.4 -3 73 -23.1 -9.6
20:30 1019 30.09 848 25.04 -19.2 -2.5 72 -23.1 -9.6
20:35 1019 30.09 848 25.04 -19.2 -2.6 72 -23 -9.5
20:40 1019 30.09 848 25.04 -19.1 -2.4 72 -23 -9.4
20:45 1019 30.09 848 25.04 -19.1 -2.4 72 -23 -9.4
20:50 1019 30.09 848 25.04 -19.3 -2.7 73 -22.9 -9.2
20:55 1019 30.09 848 25.04 -19.4 -2.9 74 -22.9 -9.2
21:00 1019 30.09 848 25.04 -19.3 -2.7 74 -22.9 -9.1
21:05 1019 30.09 848 25.04 -19.1 -2.3 73 -22.7 -8.8
21:10 1019 30.09 848 25.04 -18.9 -1.9 73 -22.6 -8.6
21:15 1019 30.09 848 25.04 -19 -2.1 73 -22.6 -8.7
21:20 1019 30.09 848 25.04 -18.9 -2 73 -22.5 -8.5
21:25 1019 30.09 848 25.04 -18.8 -1.8 73 -22.6 -8.6
21:30 1019 30.09 849 25.07 -18.9 -2 73 -22.5 -8.5
21:35 1019 30.09 849 25.07 -19 -2.1 73 -22.6 -8.7
21:40 1019 30.09 849 25.07 -18.9 -2 73 -22.6 -8.6
21:45 1019 30.09 849 25.07 -18.6 -1.5 72 -22.4 -8.4
21:50 1020 30.12 849 25.07 -18.6 -1.4 72 -22.4 -8.4
21:55 1020 30.12 849 25.07 -18.6 -1.6 72 -22.5 -8.5
22:00 1020 30.12 849 25.07 -18.8 -1.9 73 -22.5 -8.5
22:05 1020 30.12 849 25.07 -18.8 -1.8 73 -22.4 -8.4
22:10 1020 30.12 849 25.07 -18.7 -1.7 74 -22.3 -8.2
22:15 1020 30.12 849 25.07 -19 -2.2 74 -22.5 -8.5
22:20 1020 30.12 849 25.07 -18.9 -2.1 73 -22.6 -8.6
22:25 1020 30.12 849 25.07 -19.2 -2.6 74 -22.8 -9
22:30 1020 30.12 849 25.07 -19.2 -2.5 74 -22.7 -8.8
22:35 1020 30.12 849 25.07 -18.9 -1.9 74 -22.4 -8.4
22:40 1020 30.12 849 25.07 -18.2 -0.7 72 -22.1 -7.8
22:45 1020 30.12 849 25.07 -17.8 -0.1 70 -22 -7.6
22:50 1020 30.12 849 25.07 -18.1 -0.6 72 -22 -7.7
22:55 1020 30.12 850 25.1 -18 -0.4 71 -22.1 -7.8
23:00 1020 30.12 850 25.1 -18 -0.4 71 -22 -7.7
23:05 1020 30.12 850 25.1 -18.1 -0.5 71 -22.1 -7.8
23:10 1021 30.15 850 25.1 -18.1 -0.5 72 -22 -7.6
23:15 1021 30.15 850 25.1 -17.8 -0.1 70 -22.1 -7.7
23:20 1021 30.15 850 25.1 -18.1 -0.6 71 -22.2 -7.9
23:25 1021 30.15 850 25.1 -18.6 -1.5 73 -22.4 -8.3
23:30 1021 30.15 850 25.1 -18.7 -1.7 72 -22.5 -8.5
23:35 1021 30.15 850 25.1 -18.7 -1.7 73 -22.5 -8.5
23:40 1021 30.15 850 25.1 -18.5 -1.3 73 -22.2 -8
23:45 1021 30.15 850 25.1 -18.3 -0.9 71 -22.3 -8.1
23:50 1021 30.15 850 25.1 -18.3 -0.9 73 -22.1 -7.7
23:55 1021 30.15 850 25.1 -18.2 -0.7 73 -21.9 -7.4
24:00 1021 30.15 850 25.1 -18.9 -1.9 75 -22.3 -8.1